首页
METAR-TAF:

METAR-TAF

机场 :

Yellowstone Airport

West Yellowstone, 蒙大拿州, 美国

纬度: 44-39N, 经度: 111-06W, 海拔: 2031米

当前天气观测

该预报发布于21分钟前的02:45 UTC
风速7节,风向,有时为13节阵风
温度 18°C
湿度 32%
气压 1018 hPa
能見度: 16.1公里
天空无云

METAR: KWYS 010245Z AUTO 19007G13KT 10SM CLR 18/01 A3005 RMK AO2

时间: 21:06 (03:06 UTC)

预报

该预报发布于56分钟前的02:10 UTC
预报有效从01日的 02点(UTC)到 01日的 24点(UTC)
风速6节,风向多变
能見度: 10公里
少量云层高于9000英尺
多云层高于20000英尺
从 01日的 1800点(UTC)
风速14节,风向南转西南,有时为24节阵风
能見度: 10公里
散云层高于7000英尺
多云层高于10000英尺

TAF: KWYS 010210Z 0102/0124 VRB06KT P6SM FEW090 BKN200 FM011800 21014G24KT P6SM SCT070 BKN100

超过4000个机场的气象观测和天气预报(METAR&TAF报告)。

可查询的气象台以黄色和红色小点在地图上表示。

将鼠标移到小点上方,可查看气象台名称。

然后点击查看天气观测和预报。

如需切换地图:点击带黑十字的绿色按钮放大地图;点击带横线的绿色按钮缩小地图;或者点击绿色箭头查看邻近地区的地图。


METAR-TAF: